sensor_id;sensor_type;location;lat;lon;timestamp;pressure;altitude;pressure_sealevel;temperature;humidity
9672;BME280;4874;43.568;27.824;2022-08-19T00:01:55;98477.72;;;25.76;100.00
9672;BME280;4874;43.568;27.824;2022-08-19T00:04:29;98485.94;;;25.59;100.00
9672;BME280;4874;43.568;27.824;2022-08-19T00:06:57;98478.34;;;25.39;100.00
9672;BME280;4874;43.568;27.824;2022-08-19T00:09:24;98484.84;;;25.38;100.00
9672;BME280;4874;43.568;27.824;2022-08-19T00:11:52;98491.63;;;25.79;100.00
9672;BME280;4874;43.568;27.824;2022-08-19T00:14:19;98482.84;;;25.34;100.00
9672;BME280;4874;43.568;27.824;2022-08-19T00:16:48;98484.84;;;25.38;100.00
9672;BME280;4874;43.568;27.824;2022-08-19T00:19:16;98492.38;;;25.53;100.00
9672;BME280;4874;43.568;27.824;2022-08-19T00:21:42;98483.22;;;25.59;100.00
9672;BME280;4874;43.568;27.824;2022-08-19T00:24:11;98492.47;;;25.80;100.00
9672;BME280;4874;43.568;27.824;2022-08-19T00:26:39;98483.97;;;25.54;100.00
9672;BME280;4874;43.568;27.824;2022-08-19T00:29:08;98490.75;;;25.52;100.00
9672;BME280;4874;43.568;27.824;2022-08-19T00:31:36;98481.19;;;25.49;100.00
9672;BME280;4874;43.568;27.824;2022-08-19T00:34:03;98488.97;;;25.84;100.00
9672;BME280;4874;43.568;27.824;2022-08-19T00:36:30;98483.59;;;25.29;100.00
9672;BME280;4874;43.568;27.824;2022-08-19T00:38:59;98489.72;;;25.58;100.00
9672;BME280;4874;43.568;27.824;2022-08-19T00:41:27;98492.19;;;25.38;100.00
9672;BME280;4874;43.568;27.824;2022-08-19T00:43:58;98489.19;;;25.39;100.00
9672;BME280;4874;43.568;27.824;2022-08-19T00:46:26;98456.34;;;25.24;100.00
9672;BME280;4874;43.568;27.824;2022-08-19T00:48:54;98485.78;;;25.49;100.00
9672;BME280;4874;43.568;27.824;2022-08-19T00:51:24;98488.72;;;25.26;100.00
9672;BME280;4874;43.568;27.824;2022-08-19T00:53:54;98491.34;;;25.04;100.00
9672;BME280;4874;43.568;27.824;2022-08-19T00:56:21;98487.97;;;25.14;100.00
9672;BME280;4874;43.568;27.824;2022-08-19T00:58:48;98484.59;;;25.40;100.00
9672;BME280;4874;43.568;27.824;2022-08-19T01:01:15;98486.44;;;24.85;100.00
9672;BME280;4874;43.568;27.824;2022-08-19T01:03:42;98482.34;;;25.37;100.00
9672;BME280;4874;43.568;27.824;2022-08-19T01:06:22;98491.91;;;25.39;100.00
9672;BME280;4874;43.568;27.824;2022-08-19T01:08:49;98490.50;;;25.37;100.00
9672;BME280;4874;43.568;27.824;2022-08-19T01:11:16;98484.66;;;25.28;100.00
9672;BME280;4874;43.568;27.824;2022-08-19T01:13:43;98489.13;;;25.01;100.00
9672;BME280;4874;43.568;27.824;2022-08-19T01:16:16;98480.25;;;25.06;100.00
9672;BME280;4874;43.568;27.824;2022-08-19T01:18:44;98482.97;;;24.89;100.00
9672;BME280;4874;43.568;27.824;2022-08-19T01:21:18;98483.91;;;24.78;100.00
9672;BME280;4874;43.568;27.824;2022-08-19T01:23:47;98484.78;;;24.84;100.00
9672;BME280;4874;43.568;27.824;2022-08-19T01:26:21;98477.78;;;24.88;100.00
9672;BME280;4874;43.568;27.824;2022-08-19T01:28:52;98474.94;;;25.32;100.00
9672;BME280;4874;43.568;27.824;2022-08-19T01:31:23;98472.22;;;25.32;100.00
9672;BME280;4874;43.568;27.824;2022-08-19T01:33:55;98470.03;;;25.13;100.00
9672;BME280;4874;43.568;27.824;2022-08-19T01:36:35;98481.13;;;25.11;100.00
9672;BME280;4874;43.568;27.824;2022-08-19T01:39:06;98485.28;;;25.35;100.00
9672;BME280;4874;43.568;27.824;2022-08-19T01:41:33;98470.28;;;25.11;100.00
9672;BME280;4874;43.568;27.824;2022-08-19T01:44:01;98479.94;;;25.02;100.00
9672;BME280;4874;43.568;27.824;2022-08-19T01:46:39;98480.00;;;25.07;100.00
9672;BME280;4874;43.568;27.824;2022-08-19T01:49:06;98479.34;;;25.00;100.00
9672;BME280;4874;43.568;27.824;2022-08-19T01:51:35;98478.84;;;25.03;100.00
9672;BME280;4874;43.568;27.824;2022-08-19T01:54:05;98474.81;;;24.89;100.00
9672;BME280;4874;43.568;27.824;2022-08-19T01:56:31;98468.31;;;24.74;100.00
9672;BME280;4874;43.568;27.824;2022-08-19T01:59:02;98470.56;;;24.93;100.00
9672;BME280;4874;43.568;27.824;2022-08-19T02:01:30;98468.72;;;24.82;100.00
9672;BME280;4874;43.568;27.824;2022-08-19T02:04:01;98452.38;;;24.94;100.00
9672;BME280;4874;43.568;27.824;2022-08-19T02:06:28;98470.91;;;24.80;100.00
9672;BME280;4874;43.568;27.824;2022-08-19T02:08:55;98437.31;;;24.70;100.00
9672;BME280;4874;43.568;27.824;2022-08-19T02:11:34;98461.16;;;24.84;100.00
9672;BME280;4874;43.568;27.824;2022-08-19T02:14:04;98464.63;;;24.96;100.00
9672;BME280;4874;43.568;27.824;2022-08-19T02:16:32;98461.81;;;24.91;100.00
9672;BME280;4874;43.568;27.824;2022-08-19T02:18:59;98462.84;;;24.85;100.00
9672;BME280;4874;43.568;27.824;2022-08-19T02:21:29;98441.41;;;24.56;100.00
9672;BME280;4874;43.568;27.824;2022-08-19T02:23:56;98454.50;;;24.75;100.00
9672;BME280;4874;43.568;27.824;2022-08-19T02:26:23;98461.41;;;24.83;100.00
9672;BME280;4874;43.568;27.824;2022-08-19T02:28:52;98451.78;;;24.75;100.00
9672;BME280;4874;43.568;27.824;2022-08-19T02:31:22;98458.19;;;24.86;100.00
9672;BME280;4874;43.568;27.824;2022-08-19T02:33:49;98410.06;;;24.48;100.00
9672;BME280;4874;43.568;27.824;2022-08-19T02:36:17;98453.34;;;24.88;100.00
9672;BME280;4874;43.568;27.824;2022-08-19T02:38:46;98456.16;;;24.76;100.00
9672;BME280;4874;43.568;27.824;2022-08-19T02:41:25;98460.09;;;25.02;100.00
9672;BME280;4874;43.568;27.824;2022-08-19T02:43:54;98458.88;;;24.76;100.00
9672;BME280;4874;43.568;27.824;2022-08-19T02:46:39;98461.59;;;24.76;100.00
9672;BME280;4874;43.568;27.824;2022-08-19T02:49:07;98467.56;;;25.11;100.00
9672;BME280;4874;43.568;27.824;2022-08-19T02:51:37;98432.22;;;24.73;100.00
9672;BME280;4874;43.568;27.824;2022-08-19T02:54:06;98459.06;;;24.58;100.00
9672;BME280;4874;43.568;27.824;2022-08-19T02:56:35;98457.22;;;24.75;100.00
9672;BME280;4874;43.568;27.824;2022-08-19T02:59:03;98430.72;;;24.49;100.00
9672;BME280;4874;43.568;27.824;2022-08-19T03:01:34;98455.38;;;24.64;100.00
9672;BME280;4874;43.568;27.824;2022-08-19T03:04:04;98445.66;;;24.35;100.00
9672;BME280;4874;43.568;27.824;2022-08-19T03:06:31;98449.88;;;24.59;100.00
9672;BME280;4874;43.568;27.824;2022-08-19T03:08:58;98456.34;;;24.25;100.00
9672;BME280;4874;43.568;27.824;2022-08-19T03:11:27;98460.28;;;24.34;100.00
9672;BME280;4874;43.568;27.824;2022-08-19T03:13:56;98472.72;;;24.47;100.00
9672;BME280;4874;43.568;27.824;2022-08-19T03:16:26;98455.56;;;24.58;100.00
9672;BME280;4874;43.568;27.824;2022-08-19T03:18:56;98466.09;;;24.26;100.00
9672;BME280;4874;43.568;27.824;2022-08-19T03:21:27;98446.53;;;23.96;100.00
9672;BME280;4874;43.568;27.824;2022-08-19T03:23:56;98464.56;;;24.30;100.00
9672;BME280;4874;43.568;27.824;2022-08-19T03:26:23;98480.03;;;24.01;100.00
9672;BME280;4874;43.568;27.824;2022-08-19T03:28:50;98468.53;;;24.11;100.00
9672;BME280;4874;43.568;27.824;2022-08-19T03:31:25;98474.38;;;24.03;100.00
9672;BME280;4874;43.568;27.824;2022-08-19T03:34:07;98474.91;;;24.33;100.00
9672;BME280;4874;43.568;27.824;2022-08-19T03:36:35;98476.03;;;24.20;100.00
9672;BME280;4874;43.568;27.824;2022-08-19T03:39:02;98479.63;;;24.09;100.00
9672;BME280;4874;43.568;27.824;2022-08-19T03:41:32;98487.41;;;24.34;100.00
9672;BME280;4874;43.568;27.824;2022-08-19T03:43:59;98491.13;;;24.28;100.00
9672;BME280;4874;43.568;27.824;2022-08-19T03:46:29;98451.00;;;24.02;100.00
9672;BME280;4874;43.568;27.824;2022-08-19T03:48:59;98499.78;;;24.58;100.00
9672;BME280;4874;43.568;27.824;2022-08-19T03:51:31;98507.28;;;23.83;100.00
9672;BME280;4874;43.568;27.824;2022-08-19T03:54:01;98514.84;;;23.70;100.00
9672;BME280;4874;43.568;27.824;2022-08-19T03:56:29;98520.78;;;23.20;100.00
9672;BME280;4874;43.568;27.824;2022-08-19T03:58:57;98523.41;;;23.90;100.00
9672;BME280;4874;43.568;27.824;2022-08-19T04:01:27;98519.16;;;24.33;100.00
9672;BME280;4874;43.568;27.824;2022-08-19T04:03:56;98521.63;;;24.35;100.00
9672;BME280;4874;43.568;27.824;2022-08-19T04:06:29;98508.56;;;24.32;100.00
9672;BME280;4874;43.568;27.824;2022-08-19T04:08:58;98530.72;;;24.01;100.00
9672;BME280;4874;43.568;27.824;2022-08-19T04:11:28;98527.38;;;24.22;100.00
9672;BME280;4874;43.568;27.824;2022-08-19T04:14:14;98544.53;;;24.27;100.00
9672;BME280;4874;43.568;27.824;2022-08-19T04:16:42;98525.03;;;24.59;100.00
9672;BME280;4874;43.568;27.824;2022-08-19T04:19:13;98533.25;;;24.19;100.00
9672;BME280;4874;43.568;27.824;2022-08-19T04:21:44;98530.13;;;24.38;100.00
9672;BME280;4874;43.568;27.824;2022-08-19T04:24:13;98529.66;;;24.58;100.00
9672;BME280;4874;43.568;27.824;2022-08-19T04:26:40;98530.94;;;24.11;100.00
9672;BME280;4874;43.568;27.824;2022-08-19T04:29:10;98532.94;;;24.04;100.00
9672;BME280;4874;43.568;27.824;2022-08-19T04:31:39;98531.38;;;24.48;100.00
9672;BME280;4874;43.568;27.824;2022-08-19T04:34:09;98538.38;;;24.04;100.00
9672;BME280;4874;43.568;27.824;2022-08-19T04:36:39;98544.38;;;24.34;100.00
9672;BME280;4874;43.568;27.824;2022-08-19T04:39:11;98538.97;;;24.34;100.00
9672;BME280;4874;43.568;27.824;2022-08-19T04:41:38;98539.44;;;24.42;100.00
9672;BME280;4874;43.568;27.824;2022-08-19T04:44:24;98547.75;;;24.53;100.00
9672;BME280;4874;43.568;27.824;2022-08-19T04:46:52;98503.47;;;24.07;100.00
9672;BME280;4874;43.568;27.824;2022-08-19T04:49:21;98503.50;;;24.24;100.00
9672;BME280;4874;43.568;27.824;2022-08-19T04:51:49;98533.59;;;24.51;100.00
9672;BME280;4874;43.568;27.824;2022-08-19T04:54:18;98541.38;;;24.75;100.00
9672;BME280;4874;43.568;27.824;2022-08-19T04:56:54;98538.25;;;24.38;100.00
9672;BME280;4874;43.568;27.824;2022-08-19T04:59:21;98536.94;;;24.41;100.00
9672;BME280;4874;43.568;27.824;2022-08-19T05:01:48;98547.50;;;24.26;100.00
9672;BME280;4874;43.568;27.824;2022-08-19T05:04:19;98542.34;;;24.41;100.00
9672;BME280;4874;43.568;27.824;2022-08-19T05:06:47;98546.72;;;24.70;100.00
9672;BME280;4874;43.568;27.824;2022-08-19T05:09:15;98538.09;;;24.45;100.00
9672;BME280;4874;43.568;27.824;2022-08-19T05:11:44;98546.25;;;25.06;100.00
9672;BME280;4874;43.568;27.824;2022-08-19T05:14:11;98563.22;;;24.97;100.00
9672;BME280;4874;43.568;27.824;2022-08-19T05:16:39;98573.75;;;24.77;100.00
9672;BME280;4874;43.568;27.824;2022-08-19T05:19:06;98550.91;;;24.61;100.00
9672;BME280;4874;43.568;27.824;2022-08-19T05:21:51;98546.25;;;24.73;100.00
9672;BME280;4874;43.568;27.824;2022-08-19T05:24:37;98565.84;;;25.08;100.00
9672;BME280;4874;43.568;27.824;2022-08-19T05:27:16;98565.75;;;24.59;100.00
9672;BME280;4874;43.568;27.824;2022-08-19T05:29:43;98567.81;;;24.96;100.00
9672;BME280;4874;43.568;27.824;2022-08-19T05:32:10;98566.19;;;24.95;100.00
9672;BME280;4874;43.568;27.824;2022-08-19T05:34:37;98561.59;;;25.12;100.00
9672;BME280;4874;43.568;27.824;2022-08-19T05:37:05;98565.84;;;24.92;100.00
9672;BME280;4874;43.568;27.824;2022-08-19T05:39:34;98572.63;;;25.06;100.00
9672;BME280;4874;43.568;27.824;2022-08-19T05:42:04;98555.63;;;24.82;100.00
9672;BME280;4874;43.568;27.824;2022-08-19T05:44:37;98539.94;;;25.01;100.00
9672;BME280;4874;43.568;27.824;2022-08-19T05:47:06;98565.03;;;24.91;100.00
9672;BME280;4874;43.568;27.824;2022-08-19T05:49:33;98572.22;;;24.97;100.00
9672;BME280;4874;43.568;27.824;2022-08-19T05:52:10;98573.09;;;25.03;100.00
9672;BME280;4874;43.568;27.824;2022-08-19T05:54:39;98500.19;;;24.50;100.00
9672;BME280;4874;43.568;27.824;2022-08-19T05:57:08;98572.13;;;25.42;100.00
9672;BME280;4874;43.568;27.824;2022-08-19T05:59:35;98563.41;;;25.40;100.00
9672;BME280;4874;43.568;27.824;2022-08-19T06:02:04;98560.38;;;25.75;100.00
9672;BME280;4874;43.568;27.824;2022-08-19T06:04:30;98558.13;;;26.31;100.00
9672;BME280;4874;43.568;27.824;2022-08-19T06:06:57;98556.34;;;25.99;100.00
9672;BME280;4874;43.568;27.824;2022-08-19T06:09:24;98566.94;;;26.17;100.00
9672;BME280;4874;43.568;27.824;2022-08-19T06:11:57;98552.81;;;26.20;100.00
9672;BME280;4874;43.568;27.824;2022-08-19T06:14:29;98546.38;;;26.04;100.00
9672;BME280;4874;43.568;27.824;2022-08-19T06:16:57;98502.97;;;25.93;100.00
9672;BME280;4874;43.568;27.824;2022-08-19T06:19:32;98546.38;;;26.26;100.00
9672;BME280;4874;43.568;27.824;2022-08-19T06:21:59;98552.25;;;26.66;100.00
9672;BME280;4874;43.568;27.824;2022-08-19T06:24:28;98548.81;;;26.49;100.00
9672;BME280;4874;43.568;27.824;2022-08-19T06:26:56;98544.59;;;26.63;100.00
9672;BME280;4874;43.568;27.824;2022-08-19T06:29:26;98542.81;;;26.74;100.00
9672;BME280;4874;43.568;27.824;2022-08-19T06:31:56;98503.09;;;26.51;100.00
9672;BME280;4874;43.568;27.824;2022-08-19T06:34:25;98549.91;;;26.75;100.00
9672;BME280;4874;43.568;27.824;2022-08-19T06:36:54;98547.63;;;26.93;100.00
9672;BME280;4874;43.568;27.824;2022-08-19T06:39:24;98543.88;;;26.99;100.00
9672;BME280;4874;43.568;27.824;2022-08-19T06:41:55;98547.28;;;26.85;100.00
9672;BME280;4874;43.568;27.824;2022-08-19T06:44:26;98538.84;;;26.86;100.00
9672;BME280;4874;43.568;27.824;2022-08-19T06:46:54;98517.28;;;26.53;100.00
9672;BME280;4874;43.568;27.824;2022-08-19T06:49:22;98522.63;;;26.70;100.00
9672;BME280;4874;43.568;27.824;2022-08-19T06:51:50;98550.88;;;27.22;100.00
9672;BME280;4874;43.568;27.824;2022-08-19T06:54:18;98551.44;;;27.60;100.00
9672;BME280;4874;43.568;27.824;2022-08-19T06:56:46;98538.69;;;27.29;100.00
9672;BME280;4874;43.568;27.824;2022-08-19T06:59:17;98546.72;;;27.14;100.00
9672;BME280;4874;43.568;27.824;2022-08-19T07:01:47;98546.88;;;27.34;100.00
9672;BME280;4874;43.568;27.824;2022-08-19T07:04:19;98542.63;;;27.48;100.00
9672;BME280;4874;43.568;27.824;2022-08-19T07:06:46;98544.56;;;27.95;100.00
9672;BME280;4874;43.568;27.824;2022-08-19T07:09:15;98543.53;;;28.11;100.00
9672;BME280;4874;43.568;27.824;2022-08-19T07:11:49;98540.56;;;27.65;100.00
9672;BME280;4874;43.568;27.824;2022-08-19T07:14:18;98534.66;;;27.84;100.00
9672;BME280;4874;43.568;27.824;2022-08-19T07:16:48;98536.94;;;27.97;100.00
9672;BME280;4874;43.568;27.824;2022-08-19T07:19:17;98535.69;;;28.24;100.00
9672;BME280;4874;43.568;27.824;2022-08-19T07:21:46;98540.97;;;28.56;100.00
9672;BME280;4874;43.568;27.824;2022-08-19T07:24:15;98538.16;;;28.31;100.00
9672;BME280;4874;43.568;27.824;2022-08-19T07:26:42;98532.41;;;28.32;100.00
9672;BME280;4874;43.568;27.824;2022-08-19T07:29:10;98514.69;;;28.40;100.00
9672;BME280;4874;43.568;27.824;2022-08-19T07:31:38;98528.44;;;28.80;100.00
9672;BME280;4874;43.568;27.824;2022-08-19T07:34:06;98536.63;;;28.70;100.00
9672;BME280;4874;43.568;27.824;2022-08-19T07:36:37;98529.78;;;28.57;100.00
9672;BME280;4874;43.568;27.824;2022-08-19T07:39:08;98525.97;;;28.73;100.00
9672;BME280;4874;43.568;27.824;2022-08-19T07:41:35;98519.19;;;29.11;100.00
9672;BME280;4874;43.568;27.824;2022-08-19T07:44:04;98519.94;;;29.47;100.00
9672;BME280;4874;43.568;27.824;2022-08-19T07:46:38;98503.84;;;28.75;100.00
9672;BME280;4874;43.568;27.824;2022-08-19T07:49:07;98519.16;;;28.91;100.00
9672;BME280;4874;43.568;27.824;2022-08-19T07:51:34;98468.81;;;28.47;100.00
9672;BME280;4874;43.568;27.824;2022-08-19T07:54:03;98498.38;;;28.80;100.00
9672;BME280;4874;43.568;27.824;2022-08-19T07:56:29;98527.09;;;29.38;100.00
9672;BME280;4874;43.568;27.824;2022-08-19T07:58:56;98522.41;;;29.48;100.00
9672;BME280;4874;43.568;27.824;2022-08-19T08:01:25;98528.41;;;29.60;100.00
9672;BME280;4874;43.568;27.824;2022-08-19T08:03:53;98523.19;;;29.64;100.00
9672;BME280;4874;43.568;27.824;2022-08-19T08:06:39;98534.78;;;29.16;100.00
9672;BME280;4874;43.568;27.824;2022-08-19T08:09:32;98523.00;;;29.15;100.00
9672;BME280;4874;43.568;27.824;2022-08-19T08:12:11;98500.84;;;28.92;100.00
9672;BME280;4874;43.568;27.824;2022-08-19T08:15:01;98520.22;;;29.45;100.00
9672;BME280;4874;43.568;27.824;2022-08-19T08:17:29;98521.84;;;29.56;100.00
9672;BME280;4874;43.568;27.824;2022-08-19T08:20:16;98521.63;;;29.43;100.00
9672;BME280;4874;43.568;27.824;2022-08-19T08:22:45;98504.59;;;29.61;100.00
9672;BME280;4874;43.568;27.824;2022-08-19T08:25:32;98524.03;;;29.59;100.00
9672;BME280;4874;43.568;27.824;2022-08-19T08:27:59;98528.38;;;29.85;100.00
9672;BME280;4874;43.568;27.824;2022-08-19T08:30:27;98523.75;;;29.76;100.00
9672;BME280;4874;43.568;27.824;2022-08-19T08:33:23;98527.63;;;29.50;100.00
9672;BME280;4874;43.568;27.824;2022-08-19T08:35:56;98502.75;;;29.36;100.00
9672;BME280;4874;43.568;27.824;2022-08-19T08:38:22;98518.00;;;29.82;100.00
9672;BME280;4874;43.568;27.824;2022-08-19T08:41:01;98521.22;;;29.94;100.00
9672;BME280;4874;43.568;27.824;2022-08-19T08:43:35;98515.16;;;30.08;100.00
9672;BME280;4874;43.568;27.824;2022-08-19T08:46:08;98517.34;;;30.06;100.00
9672;BME280;4874;43.568;27.824;2022-08-19T08:48:57;98524.25;;;29.88;100.00
9672;BME280;4874;43.568;27.824;2022-08-19T08:51:35;98518.25;;;29.76;100.00
9672;BME280;4874;43.568;27.824;2022-08-19T08:54:06;98521.19;;;30.05;100.00
9672;BME280;4874;43.568;27.824;2022-08-19T08:56:38;98527.06;;;29.68;100.00
9672;BME280;4874;43.568;27.824;2022-08-19T08:59:16;98538.81;;;29.73;100.00
9672;BME280;4874;43.568;27.824;2022-08-19T09:01:44;98507.84;;;29.83;100.00
9672;BME280;4874;43.568;27.824;2022-08-19T09:04:12;98503.25;;;29.63;100.00
9672;BME280;4874;43.568;27.824;2022-08-19T09:09:48;98522.13;;;30.39;100.00
9672;BME280;4874;43.568;27.824;2022-08-19T09:15:07;98458.19;;;30.10;100.00
9672;BME280;4874;43.568;27.824;2022-08-19T09:17:35;98522.38;;;30.47;100.00
9672;BME280;4874;43.568;27.824;2022-08-19T09:22:39;98516.53;;;30.59;100.00
9672;BME280;4874;43.568;27.824;2022-08-19T09:25:08;98523.53;;;31.13;100.00
9672;BME280;4874;43.568;27.824;2022-08-19T09:27:37;98523.63;;;30.60;100.00
9672;BME280;4874;43.568;27.824;2022-08-19T09:30:25;98536.41;;;30.36;100.00
9672;BME280;4874;43.568;27.824;2022-08-19T09:32:54;98536.13;;;30.37;100.00
9672;BME280;4874;43.568;27.824;2022-08-19T09:35:23;98533.50;;;30.61;100.00
9672;BME280;4874;43.568;27.824;2022-08-19T09:37:50;98522.22;;;31.06;100.00
9672;BME280;4874;43.568;27.824;2022-08-19T09:40:23;98528.44;;;30.83;100.00
9672;BME280;4874;43.568;27.824;2022-08-19T09:42:50;98532.63;;;30.17;100.00
9672;BME280;4874;43.568;27.824;2022-08-19T09:45:19;98535.03;;;30.33;100.00
9672;BME280;4874;43.568;27.824;2022-08-19T09:47:51;98531.97;;;30.88;100.00
9672;BME280;4874;43.568;27.824;2022-08-19T09:50:20;98538.03;;;31.19;100.00
9672;BME280;4874;43.568;27.824;2022-08-19T09:52:47;98532.00;;;31.17;100.00
9672;BME280;4874;43.568;27.824;2022-08-19T09:55:19;98533.28;;;30.96;100.00
9672;BME280;4874;43.568;27.824;2022-08-19T09:57:46;98531.66;;;30.95;100.00
9672;BME280;4874;43.568;27.824;2022-08-19T10:00:13;98496.72;;;30.67;100.00
9672;BME280;4874;43.568;27.824;2022-08-19T10:02:41;98539.41;;;31.17;100.00
9672;BME280;4874;43.568;27.824;2022-08-19T10:05:08;98538.03;;;30.85;100.00
9672;BME280;4874;43.568;27.824;2022-08-19T10:07:53;98526.94;;;31.00;100.00
9672;BME280;4874;43.568;27.824;2022-08-19T10:10:22;98533.44;;;31.09;100.00
9672;BME280;4874;43.568;27.824;2022-08-19T10:12:49;98532.97;;;31.36;98.84
9672;BME280;4874;43.568;27.824;2022-08-19T10:15:16;98534.50;;;31.13;98.25
9672;BME280;4874;43.568;27.824;2022-08-19T10:17:54;98541.88;;;31.18;96.16
9672;BME280;4874;43.568;27.824;2022-08-19T10:20:21;98541.41;;;31.68;94.42
9672;BME280;4874;43.568;27.824;2022-08-19T10:22:49;98533.81;;;31.60;95.43
9672;BME280;4874;43.568;27.824;2022-08-19T10:25:17;98510.09;;;31.46;91.93
9672;BME280;4874;43.568;27.824;2022-08-19T10:27:44;98529.84;;;31.71;92.93
9672;BME280;4874;43.568;27.824;2022-08-19T10:30:13;98497.91;;;31.57;93.59
9672;BME280;4874;43.568;27.824;2022-08-19T10:32:40;98512.81;;;31.74;94.89
9672;BME280;4874;43.568;27.824;2022-08-19T10:35:12;98515.94;;;31.63;91.81
9672;BME280;4874;43.568;27.824;2022-08-19T10:37:39;98521.78;;;31.80;89.57
9672;BME280;4874;43.568;27.824;2022-08-19T10:40:09;98483.81;;;31.63;87.71
9672;BME280;4874;43.568;27.824;2022-08-19T10:42:37;98533.91;;;32.02;87.79
9672;BME280;4874;43.568;27.824;2022-08-19T10:45:05;98515.09;;;31.67;87.01
9672;BME280;4874;43.568;27.824;2022-08-19T10:47:33;98499.38;;;31.73;84.22
9672;BME280;4874;43.568;27.824;2022-08-19T10:50:00;98523.34;;;31.91;89.21
9672;BME280;4874;43.568;27.824;2022-08-19T10:52:46;98526.84;;;31.96;89.78
9672;BME280;4874;43.568;27.824;2022-08-19T10:55:21;98520.50;;;31.49;94.27
9672;BME280;4874;43.568;27.824;2022-08-19T10:58:15;98498.84;;;31.71;89.23
9672;BME280;4874;43.568;27.824;2022-08-19T11:00:43;98529.13;;;32.32;82.88
9672;BME280;4874;43.568;27.824;2022-08-19T11:03:17;98523.28;;;31.96;89.07
9672;BME280;4874;43.568;27.824;2022-08-19T11:05:51;98521.69;;;32.13;90.51
9672;BME280;4874;43.568;27.824;2022-08-19T11:08:23;98528.22;;;32.17;88.59
9672;BME280;4874;43.568;27.824;2022-08-19T11:10:52;98522.03;;;31.83;88.27
9672;BME280;4874;43.568;27.824;2022-08-19T11:13:21;98510.81;;;31.80;85.54
9672;BME280;4874;43.568;27.824;2022-08-19T11:16:07;98518.78;;;31.81;87.49
9672;BME280;4874;43.568;27.824;2022-08-19T11:18:39;98516.81;;;31.30;89.56
9672;BME280;4874;43.568;27.824;2022-08-19T11:21:09;98494.28;;;31.33;88.06
9672;BME280;4874;43.568;27.824;2022-08-19T11:23:37;98520.78;;;31.99;84.12
9672;BME280;4874;43.568;27.824;2022-08-19T11:26:03;98516.41;;;32.41;83.16
9672;BME280;4874;43.568;27.824;2022-08-19T11:28:30;98513.28;;;32.47;86.08
9672;BME280;4874;43.568;27.824;2022-08-19T11:30:57;98521.91;;;32.41;85.70
9672;BME280;4874;43.568;27.824;2022-08-19T11:33:24;98508.47;;;32.58;82.47
9672;BME280;4874;43.568;27.824;2022-08-19T11:35:53;98505.91;;;32.00;85.97
9672;BME280;4874;43.568;27.824;2022-08-19T11:38:21;98517.19;;;32.22;86.32
9672;BME280;4874;43.568;27.824;2022-08-19T11:40:55;98507.22;;;32.27;86.63
9672;BME280;4874;43.568;27.824;2022-08-19T11:43:22;98492.47;;;32.22;85.96
9672;BME280;4874;43.568;27.824;2022-08-19T11:45:48;98493.31;;;31.99;85.71
9672;BME280;4874;43.568;27.824;2022-08-19T11:48:15;98481.84;;;31.69;86.25
9672;BME280;4874;43.568;27.824;2022-08-19T11:50:42;98488.34;;;32.01;85.58
9672;BME280;4874;43.568;27.824;2022-08-19T11:53:09;98491.38;;;32.42;83.79
9672;BME280;4874;43.568;27.824;2022-08-19T11:55:38;98501.06;;;32.40;82.59
9672;BME280;4874;43.568;27.824;2022-08-19T11:58:08;98478.13;;;32.26;84.01
9672;BME280;4874;43.568;27.824;2022-08-19T12:00:41;98482.41;;;32.13;85.72
9672;BME280;4874;43.568;27.824;2022-08-19T12:03:08;98473.56;;;32.16;85.65
9672;BME280;4874;43.568;27.824;2022-08-19T12:05:37;98481.50;;;32.60;84.16
9672;BME280;4874;43.568;27.824;2022-08-19T12:08:04;98484.56;;;32.35;85.46
9672;BME280;4874;43.568;27.824;2022-08-19T12:10:31;98491.03;;;32.06;82.52
9672;BME280;4874;43.568;27.824;2022-08-19T12:12:58;98404.72;;;31.18;79.90
9672;BME280;4874;43.568;27.824;2022-08-19T12:15:27;98478.84;;;32.12;80.37
9672;BME280;4874;43.568;27.824;2022-08-19T12:17:56;98478.22;;;32.39;77.71
9672;BME280;4874;43.568;27.824;2022-08-19T12:20:24;98473.03;;;33.07;77.44
9672;BME280;4874;43.568;27.824;2022-08-19T12:22:50;98471.25;;;32.65;74.59
9672;BME280;4874;43.568;27.824;2022-08-19T12:25:17;98471.22;;;32.47;77.87
9672;BME280;4874;43.568;27.824;2022-08-19T12:27:44;98474.25;;;32.27;77.98
9672;BME280;4874;43.568;27.824;2022-08-19T12:30:18;98465.69;;;32.09;80.63
9672;BME280;4874;43.568;27.824;2022-08-19T12:32:44;98454.75;;;31.62;81.60
9672;BME280;4874;43.568;27.824;2022-08-19T12:35:11;98469.97;;;31.73;81.41
9672;BME280;4874;43.568;27.824;2022-08-19T12:37:39;98468.44;;;31.91;78.22
9672;BME280;4874;43.568;27.824;2022-08-19T12:40:11;98473.28;;;32.17;77.20
9672;BME280;4874;43.568;27.824;2022-08-19T12:42:41;98466.03;;;32.45;76.09
9672;BME280;4874;43.568;27.824;2022-08-19T12:45:10;98447.41;;;32.42;75.11
9672;BME280;4874;43.568;27.824;2022-08-19T12:47:38;98463.28;;;32.45;76.50
9672;BME280;4874;43.568;27.824;2022-08-19T12:50:07;98467.19;;;32.76;71.31
9672;BME280;4874;43.568;27.824;2022-08-19T12:52:36;98465.22;;;32.63;71.14
9672;BME280;4874;43.568;27.824;2022-08-19T12:55:09;98455.00;;;33.01;69.06
9672;BME280;4874;43.568;27.824;2022-08-19T12:57:37;98462.66;;;32.30;69.74
9672;BME280;4874;43.568;27.824;2022-08-19T13:00:13;98459.03;;;32.15;71.54
9672;BME280;4874;43.568;27.824;2022-08-19T13:02:43;98448.56;;;32.17;66.57
9672;BME280;4874;43.568;27.824;2022-08-19T13:05:17;98453.78;;;32.56;68.21
9672;BME280;4874;43.568;27.824;2022-08-19T13:07:47;98444.72;;;32.56;70.84
9672;BME280;4874;43.568;27.824;2022-08-19T13:10:16;98403.63;;;32.64;66.41
9672;BME280;4874;43.568;27.824;2022-08-19T13:12:47;98442.66;;;32.80;68.55
9672;BME280;4874;43.568;27.824;2022-08-19T13:15:16;98450.69;;;32.76;69.26
9672;BME280;4874;43.568;27.824;2022-08-19T13:17:50;98434.47;;;32.61;73.91
9672;BME280;4874;43.568;27.824;2022-08-19T13:20:19;98428.75;;;32.58;75.94
9672;BME280;4874;43.568;27.824;2022-08-19T13:22:47;98449.81;;;32.99;75.62
9672;BME280;4874;43.568;27.824;2022-08-19T13:25:15;98456.50;;;32.93;74.71
9672;BME280;4874;43.568;27.824;2022-08-19T13:27:44;98459.06;;;32.53;78.52